Time;durP1;ratioP1;P1;durP2;ratioP2;P2;SDS_P1;SDS_P2;PMS_P1;PMS_P2;Temp;Humidity;BMP_temperature;BMP_pressure;BME280_temperature;BME280_humidity;BME280_pressure;Samples;Min_cycle;Max_cycle;Signal;HPM_P1;HPM_P2
2022/11/10 00:01:09;;;;;;;2.13;1.13;;;22.20;54.60;;;;;;5051622;28;20667;-73
2022/11/10 00:03:39;;;;;;;4.37;1.47;;;22.70;54.20;;;;;;5048191;28;20271;-70
2022/11/10 00:06:08;;;;;;;4.43;2.17;;;22.60;55.40;;;;;;5053614;28;20251;-69
2022/11/10 00:08:35;;;;;;;4.20;0.70;;;22.80;55.60;;;;;;5061620;28;20208;-71
2022/11/10 00:11:06;;;;;;;4.87;0.87;;;22.80;53.90;;;;;;5064710;28;20187;-68
2022/11/10 00:19:13;;;;;;;1.53;0.70;;;23.00;51.70;;;;;;5068461;28;20194;-68
2022/11/10 00:21:40;;;;;;;3.33;1.07;;;23.10;50.70;;;;;;5054035;28;20215;-73
2022/11/10 00:24:08;;;;;;;2.70;0.67;;;23.10;50.40;;;;;;5068179;28;20180;-72
2022/11/10 00:26:35;;;;;;;0.63;0.60;;;23.10;50.90;;;;;;5041277;28;20180;-71
2022/11/10 00:29:03;;;;;;;0.63;0.60;;;23.30;50.00;;;;;;5053161;28;20200;-69
2022/11/10 00:31:30;;;;;;;1.87;0.80;;;23.60;49.50;;;;;;5061774;28;20187;-69
2022/11/10 00:33:58;;;;;;;3.00;0.80;;;23.50;48.70;;;;;;5059096;28;20206;-69
2022/11/10 00:36:25;;;;;;;2.57;0.90;;;23.40;47.40;;;;;;5055965;28;20183;-70
2022/11/10 00:38:53;;;;;;;1.43;0.60;;;23.40;47.40;;;;;;5055315;28;20187;-68
2022/11/10 00:41:21;;;;;;;1.13;0.60;;;23.40;48.40;;;;;;5040985;28;20225;-68
2022/11/10 00:43:48;;;;;;;1.17;0.60;;;23.20;48.30;;;;;;5060288;28;20262;-68
2022/11/10 00:46:16;;;;;;;1.20;0.80;;;23.40;48.20;;;;;;5064426;28;20193;-67
2022/11/10 00:48:43;;;;;;;4.43;0.97;;;23.50;48.80;;;;;;5058222;28;20183;-66
2022/11/10 00:51:29;;;;;;;3.30;0.73;;;23.70;49.80;;;;;;5055203;28;20194;-68
2022/11/10 00:53:56;;;;;;;1.83;0.67;;;23.80;49.10;;;;;;5059724;28;20180;-67
2022/11/10 00:56:25;;;;;;;1.70;0.63;;;23.70;49.00;;;;;;5064089;28;20191;-70
2022/11/10 00:58:52;;;;;;;3.70;0.70;;;23.80;49.50;;;;;;5046285;28;20243;-70
2022/11/10 01:01:23;;;;;;;2.60;0.93;;;23.60;50.60;;;;;;5054963;28;20257;-69
2022/11/10 01:03:51;;;;;;;4.23;0.93;;;23.50;50.10;;;;;;5052077;28;20627;-70
2022/11/10 01:06:20;;;;;;;2.10;0.90;;;23.60;49.70;;;;;;5057784;28;20194;-69
2022/11/10 01:08:48;;;;;;;1.37;0.70;;;23.80;50.40;;;;;;5057772;28;20187;-69
2022/11/10 01:11:21;;;;;;;2.50;1.00;;;24.00;50.10;;;;;;5045758;28;20185;-68
2022/11/10 01:13:51;;;;;;;3.37;0.80;;;24.20;50.70;;;;;;5056938;28;20180;-67
2022/11/10 01:16:21;;;;;;;3.00;0.67;;;24.20;50.30;;;;;;5048982;28;20183;-68
2022/11/10 01:19:02;;;;;;;2.70;1.10;;;24.30;51.20;;;;;;5061572;28;20186;-66
2022/11/10 01:21:30;;;;;;;2.87;0.90;;;24.30;52.20;;;;;;5066385;28;20681;-71
2022/11/10 01:23:58;;;;;;;2.40;0.60;;;24.20;52.30;;;;;;5055851;28;20237;-69
2022/11/10 01:26:25;;;;;;;2.73;1.10;;;24.30;53.30;;;;;;5057158;28;20266;-74
2022/11/10 01:28:52;;;;;;;3.00;0.90;;;24.10;53.90;;;;;;5056729;28;20641;-73
2022/11/10 01:31:21;;;;;;;8.07;1.00;;;24.40;52.30;;;;;;5045569;28;20195;-70
2022/11/10 01:33:48;;;;;;;6.93;1.10;;;24.30;52.70;;;;;;5047148;28;20192;-69
2022/11/10 01:36:16;;;;;;;1.83;1.00;;;24.00;53.40;;;;;;5068674;28;20643;-72
2022/11/10 01:38:43;;;;;;;6.57;1.10;;;24.00;52.30;;;;;;5059173;28;20195;-70
2022/11/10 01:41:13;;;;;;;6.17;1.20;;;23.80;52.20;;;;;;5060942;28;20210;-71
2022/11/10 01:43:40;;;;;;;2.07;0.87;;;24.30;52.80;;;;;;5058763;28;20183;-72
2022/11/10 01:46:09;;;;;;;5.77;1.27;;;24.30;52.80;;;;;;5058471;28;20285;-70
2022/11/10 01:48:39;;;;;;;4.93;0.90;;;24.20;53.30;;;;;;5056881;28;20258;-68
2022/11/10 01:51:39;;;;;;;4.10;0.97;;;24.50;54.10;;;;;;5067684;28;20188;-73
2022/11/10 01:54:13;;;;;;;4.23;0.90;;;24.40;53.10;;;;;;5054637;28;20698;-73
2022/11/10 01:56:49;;;;;;;2.13;0.80;;;24.10;53.50;;;;;;5052102;28;20784;-69
2022/11/10 01:59:24;;;;;;;3.53;1.17;;;24.10;53.40;;;;;;5053348;28;20297;-71
2022/11/10 02:01:54;;;;;;;5.07;1.07;;;23.90;54.90;;;;;;5054963;28;20299;-70
2022/11/10 02:04:21;;;;;;;2.60;0.80;;;23.90;54.30;;;;;;5061403;28;20711;-73
2022/11/10 02:06:50;;;;;;;3.33;0.90;;;24.00;53.80;;;;;;5050015;28;20667;-71
2022/11/10 02:09:18;;;;;;;2.07;1.10;;;24.00;54.70;;;;;;5060503;28;20651;-74
2022/11/10 02:11:46;;;;;;;3.80;1.20;;;24.20;54.10;;;;;;5061556;28;20303;-71
2022/11/10 02:14:15;;;;;;;2.93;1.13;;;24.10;55.20;;;;;;5058271;28;20658;-68
2022/11/10 02:16:42;;;;;;;3.03;0.80;;;24.40;52.90;;;;;;5054173;28;20264;-75
2022/11/10 02:19:28;;;;;;;4.83;1.00;;;24.20;54.70;;;;;;5062255;28;20176;-72
2022/11/10 02:21:55;;;;;;;2.57;0.90;;;24.20;55.20;;;;;;5042682;28;20223;-74
2022/11/10 02:24:23;;;;;;;3.13;0.90;;;24.40;53.00;;;;;;5063504;28;20199;-74
2022/11/10 02:26:55;;;;;;;3.87;0.93;;;24.40;51.80;;;;;;5052744;28;20184;-75
2022/11/10 02:29:24;;;;;;;4.50;1.30;;;24.70;50.70;;;;;;5051830;28;20199;-74
2022/11/10 02:31:52;;;;;;;3.23;0.83;;;24.80;51.30;;;;;;5047110;28;20270;-75
2022/11/10 02:34:19;;;;;;;3.17;0.90;;;25.00;50.30;;;;;;5051092;28;20172;-73
2022/11/10 02:36:47;;;;;;;4.70;1.20;;;25.00;49.90;;;;;;5053581;28;20266;-73
2022/11/10 02:39:14;;;;;;;3.97;1.40;;;25.20;50.50;;;;;;5058259;28;20230;-73
2022/11/10 02:41:42;;;;;;;3.20;0.80;;;25.50;49.90;;;;;;5050591;28;20243;-72
2022/11/10 02:44:09;;;;;;;3.43;1.00;;;25.50;49.20;;;;;;5052576;28;20255;-73
2022/11/10 02:46:37;;;;;;;1.63;0.87;;;25.30;48.10;;;;;;5053214;28;20550;-71
2022/11/10 02:49:04;;;;;;;3.13;0.90;;;25.20;49.00;;;;;;5051510;28;20661;-74
2022/11/10 02:51:32;;;;;;;5.97;1.40;;;25.30;48.20;;;;;;5048808;28;20180;-74
2022/11/10 02:53:59;;;;;;;5.23;1.27;;;25.30;48.40;;;;;;5051448;28;20192;-77
2022/11/10 02:56:26;;;;;;;4.70;1.10;;;25.30;47.70;;;;;;5052181;28;20275;-74
2022/11/10 02:58:54;;;;;;;4.50;1.27;;;25.30;47.30;;;;;;5053311;28;20198;-70
2022/11/10 03:01:21;;;;;;;4.60;1.40;;;25.40;47.10;;;;;;5052179;28;20225;-69
2022/11/10 03:03:49;;;;;;;6.87;1.50;;;25.60;47.40;;;;;;5053465;28;20477;-71
2022/11/10 03:06:16;;;;;;;2.93;0.93;;;25.80;46.70;;;;;;5046106;28;20215;-70
2022/11/10 03:08:43;;;;;;;3.30;0.87;;;25.50;47.10;;;;;;5048590;28;20180;-69
2022/11/10 03:11:11;;;;;;;1.87;0.70;;;25.60;46.50;;;;;;5042383;28;20283;-68
2022/11/10 03:13:38;;;;;;;8.43;1.03;;;25.80;46.40;;;;;;5052016;28;20528;-69
2022/11/10 03:16:06;;;;;;;1.23;1.00;;;25.60;46.50;;;;;;5051263;28;20180;-72
2022/11/10 03:18:33;;;;;;;2.00;0.90;;;25.30;47.30;;;;;;5052744;28;20184;-69
2022/11/10 03:21:01;;;;;;;2.90;0.90;;;25.50;47.50;;;;;;5049908;28;20303;-69
2022/11/10 03:23:28;;;;;;;1.67;1.00;;;25.10;48.10;;;;;;5033570;28;20654;-69
2022/11/10 03:25:55;;;;;;;8.13;1.17;;;25.00;48.30;;;;;;5048521;28;20306;-69
2022/11/10 03:28:23;;;;;;;4.03;0.83;;;25.30;48.20;;;;;;5040740;28;20176;-68
2022/11/10 03:30:51;;;;;;;5.83;1.00;;;25.50;48.20;;;;;;5050980;28;20221;-68
2022/11/10 03:33:18;;;;;;;2.60;0.90;;;25.50;47.00;;;;;;5050658;28;20360;-69
2022/11/10 03:35:45;;;;;;;1.90;0.87;;;25.50;47.60;;;;;;5052730;28;20168;-72
2022/11/10 03:38:12;;;;;;;3.23;1.00;;;25.50;48.50;;;;;;5052495;28;20531;-70
2022/11/10 03:40:40;;;;;;;2.43;1.00;;;25.40;47.60;;;;;;5052305;28;20196;-71
2022/11/10 03:43:08;;;;;;;1.40;0.70;;;25.50;47.70;;;;;;5052345;28;20225;-68
2022/11/10 03:45:35;;;;;;;4.10;0.87;;;26.00;46.10;;;;;;5052159;28;20275;-71
2022/11/10 03:48:03;;;;;;;2.33;0.73;;;26.30;45.40;;;;;;5052546;28;20611;-69
2022/11/10 03:50:30;;;;;;;3.37;1.47;;;25.70;46.60;;;;;;5051175;28;20184;-71
2022/11/10 03:52:57;;;;;;;2.97;0.80;;;26.00;46.30;;;;;;5050295;28;20237;-70
2022/11/10 03:55:25;;;;;;;2.63;0.73;;;26.10;44.60;;;;;;5045217;28;20530;-70
2022/11/10 03:57:52;;;;;;;8.00;1.00;;;26.50;44.20;;;;;;5050617;28;20199;-70
2022/11/10 04:00:20;;;;;;;3.07;0.87;;;26.90;43.90;;;;;;5049538;28;20599;-71
2022/11/10 04:02:48;;;;;;;1.57;0.60;;;26.70;44.50;;;;;;5051150;28;20275;-72
2022/11/10 04:10:49;;;;;;;2.60;0.70;;;25.80;43.50;;;;;;5052249;28;20171;-70
2022/11/10 04:16:02;;;;;;;1.77;0.70;;;25.70;40.70;;;;;;5051619;28;20190;-69
2022/11/10 04:18:29;;;;;;;2.93;0.67;;;25.40;40.40;;;;;;5051694;28;20180;-70
2022/11/10 04:21:01;;;;;;;2.97;0.77;;;25.70;39.90;;;;;;5051426;28;20294;-72
2022/11/10 04:23:34;;;;;;;3.87;0.83;;;25.60;40.10;;;;;;5050547;28;20719;-68
2022/11/10 04:28:54;;;;;;;1.30;0.60;;;26.20;37.50;;;;;;5054656;28;20205;-70
2022/11/10 04:31:23;;;;;;;1.60;0.73;;;25.90;40.10;;;;;;5053897;28;20182;-71
2022/11/10 04:33:52;;;;;;;1.60;0.70;;;25.90;40.80;;;;;;5052405;28;20168;-68
2022/11/10 04:36:22;;;;;;;4.03;0.60;;;26.20;42.60;;;;;;5055805;28;20698;-68
2022/11/10 04:38:50;;;;;;;3.37;0.90;;;26.80;42.30;;;;;;5055502;28;20172;-70
2022/11/10 04:41:18;;;;;;;1.40;0.70;;;26.40;40.70;;;;;;5055276;28;20212;-68
2022/11/10 04:43:45;;;;;;;3.97;0.87;;;26.30;41.00;;;;;;5056003;28;20190;-68
2022/11/10 04:46:36;;;;;;;2.03;0.80;;;26.40;40.80;;;;;;5054907;28;20208;-67
2022/11/10 04:49:05;;;;;;;1.63;0.57;;;26.70;42.00;;;;;;5055204;28;20190;-66
2022/11/10 04:51:38;;;;;;;2.87;0.93;;;26.00;41.70;;;;;;5049591;28;20187;-72
2022/11/10 04:54:07;;;;;;;2.63;0.60;;;26.60;41.70;;;;;;5055429;28;20195;-68
2022/11/10 04:56:34;;;;;;;2.27;0.70;;;26.30;41.30;;;;;;5055561;28;20176;-68
2022/11/10 04:59:01;;;;;;;1.73;0.80;;;26.10;40.90;;;;;;5054503;28;20278;-67
2022/11/10 05:01:29;;;;;;;1.73;0.67;;;26.10;42.00;;;;;;5055120;28;20551;-71
2022/11/10 05:03:56;;;;;;;1.10;0.70;;;26.00;41.90;;;;;;5054359;28;20263;-68
2022/11/10 05:06:24;;;;;;;1.70;0.80;;;26.60;40.10;;;;;;5054261;28;20192;-68
2022/11/10 05:08:52;;;;;;;1.90;0.90;;;26.60;40.70;;;;;;5050068;28;20226;-73
2022/11/10 05:11:19;;;;;;;2.40;0.60;;;26.50;40.90;;;;;;5053936;28;20646;-71
2022/11/10 05:13:47;;;;;;;1.73;0.50;;;26.80;40.00;;;;;;5054635;28;20199;-74
2022/11/10 05:16:14;;;;;;;5.17;0.73;;;26.40;41.30;;;;;;5055204;28;21717;-70
2022/11/10 05:18:42;;;;;;;1.90;0.80;;;26.80;40.90;;;;;;5055201;28;20191;-69
2022/11/10 05:21:09;;;;;;;3.33;1.13;;;27.30;40.30;;;;;;5049834;28;20242;-75
2022/11/10 05:23:37;;;;;;;2.40;0.97;;;26.90;41.50;;;;;;5055236;28;20168;-68
2022/11/10 05:26:06;;;;;;;2.50;0.73;;;27.00;42.40;;;;;;5054820;28;20183;-67
2022/11/10 05:28:34;;;;;;;2.53;0.87;;;27.20;41.30;;;;;;5055248;28;20183;-67
2022/11/10 05:31:02;;;;;;;2.67;0.63;;;26.60;43.00;;;;;;5055198;28;20260;-66
2022/11/10 05:33:30;;;;;;;2.03;0.70;;;26.60;42.80;;;;;;5054606;28;20259;-68
2022/11/10 05:35:57;;;;;;;3.53;0.90;;;27.10;41.50;;;;;;5055162;28;20168;-66
2022/11/10 05:38:25;;;;;;;4.10;0.97;;;26.90;42.30;;;;;;5054048;28;20180;-68
2022/11/10 05:40:53;;;;;;;2.00;0.93;;;26.30;41.40;;;;;;5054206;28;20200;-69
2022/11/10 05:43:20;;;;;;;7.10;1.20;;;26.40;42.30;;;;;;5054774;28;20657;-67
2022/11/10 05:45:48;;;;;;;2.83;0.73;;;26.40;42.80;;;;;;5054695;28;20227;-67
2022/11/10 05:48:16;;;;;;;1.50;0.53;;;26.90;42.90;;;;;;5054781;28;20270;-67
2022/11/10 05:50:44;;;;;;;4.03;1.00;;;26.40;43.50;;;;;;5054851;28;20183;-70
2022/11/10 05:53:12;;;;;;;3.17;1.00;;;26.70;43.60;;;;;;5054179;28;20183;-67
2022/11/10 05:55:39;;;;;;;3.23;0.90;;;27.10;42.70;;;;;;5054424;28;20180;-68
2022/11/10 05:58:07;;;;;;;2.13;0.80;;;27.40;40.50;;;;;;5054436;28;20184;-68
2022/11/10 06:00:34;;;;;;;4.03;0.67;;;26.70;41.60;;;;;;5054386;28;20258;-70
2022/11/10 06:03:16;;;;;;;3.03;1.00;;;26.30;42.30;;;;;;5054361;28;20180;-68
2022/11/10 06:05:43;;;;;;;3.37;0.97;;;26.50;42.20;;;;;;5054483;28;20534;-68
2022/11/10 06:08:11;;;;;;;1.90;0.70;;;26.80;42.50;;;;;;5054261;28;20168;-70
2022/11/10 06:10:40;;;;;;;3.53;0.80;;;26.70;41.60;;;;;;5053969;28;20184;-67
2022/11/10 06:13:07;;;;;;;2.33;0.80;;;26.30;42.90;;;;;;5054409;28;20275;-70
2022/11/10 06:15:34;;;;;;;2.93;0.97;;;26.10;43.70;;;;;;5070027;28;20546;-69
2022/11/10 06:18:02;;;;;;;2.67;1.10;;;26.00;43.30;;;;;;5069520;28;20554;-71
2022/11/10 06:20:30;;;;;;;3.20;0.70;;;26.20;42.50;;;;;;5053945;28;20196;-68
2022/11/10 06:23:09;;;;;;;3.30;0.60;;;26.10;42.60;;;;;;5054024;28;20184;-71
2022/11/10 06:25:38;;;;;;;3.40;0.70;;;25.50;43.10;;;;;;5054170;28;20175;-72
2022/11/10 06:28:07;;;;;;;2.53;0.93;;;25.50;43.20;;;;;;5046065;28;20653;-73
2022/11/10 06:30:36;;;;;;;4.13;0.90;;;25.80;43.80;;;;;;5034383;28;20184;-70
2022/11/10 06:33:04;;;;;;;2.60;0.70;;;25.90;43.30;;;;;;5053413;28;20221;-74
2022/11/10 06:35:31;;;;;;;3.30;1.00;;;25.80;44.00;;;;;;5053894;28;20187;-69
2022/11/10 06:38:04;;;;;;;5.43;1.40;;;25.10;45.10;;;;;;5053678;28;20263;-75
2022/11/10 06:40:32;;;;;;;3.83;1.10;;;25.10;46.90;;;;;;5053439;28;20654;-72
2022/11/10 06:43:00;;;;;;;4.17;0.90;;;25.30;47.80;;;;;;5053683;28;20222;-71
2022/11/10 06:45:28;;;;;;;3.67;0.90;;;25.40;45.40;;;;;;5053195;28;20586;-71
2022/11/10 06:48:04;;;;;;;3.97;0.90;;;25.00;47.20;;;;;;5053555;28;20183;-73
2022/11/10 06:50:32;;;;;;;3.73;0.90;;;25.20;46.80;;;;;;5053449;28;20187;-72
2022/11/10 06:53:00;;;;;;;4.67;1.07;;;25.50;47.00;;;;;;5053548;28;20222;-71
2022/11/10 06:55:28;;;;;;;3.87;1.10;;;26.10;45.80;;;;;;5053031;28;20176;-74
2022/11/10 06:57:56;;;;;;;2.47;0.83;;;25.00;46.20;;;;;;5053462;28;20172;-77
2022/11/10 07:00:24;;;;;;;3.07;0.90;;;24.90;47.40;;;;;;5053125;28;20676;-74
2022/11/10 07:03:06;;;;;;;4.77;0.70;;;24.40;48.80;;;;;;5053481;28;20345;-70
2022/11/10 07:05:35;;;;;;;3.33;0.97;;;23.90;50.70;;;;;;5053007;28;20259;-73
2022/11/10 07:08:14;;;;;;;2.53;1.00;;;24.20;49.70;;;;;;5053379;28;20216;-75
2022/11/10 07:10:43;;;;;;;3.87;0.90;;;24.10;50.60;;;;;;5052599;28;20267;-76
2022/11/10 07:13:11;;;;;;;3.60;0.90;;;24.30;50.20;;;;;;5052999;28;20187;-73
2022/11/10 07:15:38;;;;;;;5.83;1.20;;;23.80;52.00;;;;;;5052660;28;20206;-72
2022/11/10 07:18:06;;;;;;;5.90;1.40;;;24.40;51.20;;;;;;5053328;28;20172;-73
2022/11/10 07:20:34;;;;;;;2.97;1.00;;;24.60;51.00;;;;;;5052183;28;20219;-72
2022/11/10 07:23:03;;;;;;;4.13;1.10;;;24.40;51.40;;;;;;5052928;28;20209;-71
2022/11/10 07:25:36;;;;;;;4.13;1.00;;;23.90;52.20;;;;;;5051648;28;20180;-75
2022/11/10 07:28:09;;;;;;;2.97;0.80;;;23.10;54.60;;;;;;5050707;28;20191;-73
2022/11/10 07:30:37;;;;;;;5.90;1.10;;;22.90;56.50;;;;;;5045234;28;20183;-70
2022/11/10 07:33:08;;;;;;;3.77;1.00;;;22.30;58.50;;;;;;5035077;28;20184;-67
2022/11/10 07:35:36;;;;;;;2.90;0.90;;;22.10;59.40;;;;;;5052841;28;20252;-72
2022/11/10 07:38:08;;;;;;;4.73;1.07;;;21.80;59.90;;;;;;5052888;28;20167;-76
2022/11/10 07:40:36;;;;;;;6.27;1.03;;;21.50;61.10;;;;;;5052578;28;20214;-76
2022/11/10 07:43:04;;;;;;;4.40;1.27;;;21.30;62.00;;;;;;5052923;28;20267;-72
2022/11/10 07:45:32;;;;;;;3.87;1.20;;;21.30;62.20;;;;;;5052438;28;20223;-75
2022/11/10 07:48:05;;;;;;;2.43;1.20;;;21.30;61.20;;;;;;5053067;28;20167;-72
2022/11/10 07:50:32;;;;;;;5.00;1.10;;;21.10;62.10;;;;;;5052577;28;20251;-75
2022/11/10 07:53:14;;;;;;;4.57;0.97;;;20.90;62.60;;;;;;5052825;28;20179;-74
2022/11/10 07:55:44;;;;;;;3.90;1.13;;;20.80;63.80;;;;;;5052795;28;20159;-72
2022/11/10 07:58:13;;;;;;;5.23;1.00;;;20.60;64.40;;;;;;5052589;28;20646;-70
2022/11/10 08:00:41;;;;;;;3.50;1.40;;;20.50;64.50;;;;;;5051820;28;20601;-74
2022/11/10 08:03:13;;;;;;;2.67;1.20;;;20.50;64.90;;;;;;5051909;28;20249;-71
2022/11/10 08:05:41;;;;;;;4.03;1.57;;;20.40;64.60;;;;;;5052628;28;20168;-69
2022/11/10 08:08:08;;;;;;;3.60;1.40;;;20.30;64.60;;;;;;5052074;28;20582;-75
2022/11/10 08:10:36;;;;;;;5.20;1.00;;;20.30;65.20;;;;;;5052667;28;20168;-68
2022/11/10 08:13:06;;;;;;;5.33;1.53;;;20.30;65.50;;;;;;5052629;28;20172;-69
2022/11/10 08:15:34;;;;;;;5.03;1.70;;;20.20;65.90;;;;;;5052438;28;20175;-68
2022/11/10 08:18:21;;;;;;;7.00;1.40;;;20.20;65.90;;;;;;5052105;28;20204;-67
2022/11/10 08:20:48;;;;;;;3.50;1.10;;;20.10;66.00;;;;;;5052273;28;20286;-68
2022/11/10 08:23:16;;;;;;;3.37;1.20;;;20.00;66.70;;;;;;5052181;28;20172;-68
2022/11/10 08:25:45;;;;;;;5.87;1.13;;;20.00;66.10;;;;;;5051827;28;20188;-67
2022/11/10 08:28:16;;;;;;;9.13;1.37;;;20.00;66.10;;;;;;5043310;28;20172;-67
2022/11/10 08:30:46;;;;;;;6.03;1.20;;;20.00;65.50;;;;;;5032500;28;20199;-68
2022/11/10 08:33:15;;;;;;;9.63;1.27;;;19.90;65.10;;;;;;5049542;28;20545;-69
2022/11/10 08:35:45;;;;;;;3.20;1.10;;;20.00;65.30;;;;;;5048206;28;20179;-70
2022/11/10 08:38:23;;;;;;;5.63;1.20;;;19.90;65.80;;;;;;5052333;28;20175;-67
2022/11/10 08:40:51;;;;;;;4.50;1.00;;;19.90;66.40;;;;;;5051437;28;20219;-68
2022/11/10 08:43:18;;;;;;;3.57;0.90;;;19.80;66.90;;;;;;5051165;28;20674;-68
2022/11/10 08:45:46;;;;;;;6.93;1.70;;;19.80;66.70;;;;;;5052092;28;20231;-68
2022/11/10 08:48:16;;;;;;;6.33;1.43;;;19.80;66.90;;;;;;5052310;28;20175;-68
2022/11/10 08:50:44;;;;;;;3.07;1.10;;;19.70;67.20;;;;;;5051961;28;20638;-68
2022/11/10 08:53:17;;;;;;;5.47;1.50;;;19.70;67.30;;;;;;5041684;28;20188;-67
2022/11/10 08:55:45;;;;;;;2.87;1.40;;;19.70;67.40;;;;;;5051984;28;20230;-69
2022/11/10 08:58:15;;;;;;;4.83;1.43;;;19.70;67.60;;;;;;5051823;28;20172;-72
2022/11/10 09:00:43;;;;;;;3.87;1.30;;;19.70;67.40;;;;;;5050163;28;20286;-76
2022/11/10 09:03:19;;;;;;;3.87;0.90;;;19.70;67.60;;;;;;5050111;28;20183;-68
2022/11/10 09:05:48;;;;;;;4.47;1.20;;;19.70;67.90;;;;;;5051592;28;20191;-72
2022/11/10 09:08:16;;;;;;;3.77;1.10;;;19.70;68.00;;;;;;5032418;28;20187;-69
2022/11/10 09:10:46;;;;;;;6.70;1.47;;;19.60;68.70;;;;;;5050930;28;20233;-71
2022/11/10 09:13:15;;;;;;;5.00;1.43;;;19.60;68.90;;;;;;5053865;28;20168;-72
2022/11/10 09:15:44;;;;;;;5.23;1.53;;;19.60;69.10;;;;;;5056196;28;20176;-73
2022/11/10 09:18:14;;;;;;;4.80;1.30;;;19.60;69.30;;;;;;5055184;28;20620;-74
2022/11/10 09:20:42;;;;;;;3.13;1.43;;;19.60;69.30;;;;;;5055129;28;20265;-69
2022/11/10 09:23:12;;;;;;;3.53;1.20;;;19.60;69.20;;;;;;5054160;28;20180;-68
2022/11/10 09:25:40;;;;;;;3.47;1.67;;;19.60;69.00;;;;;;5052744;28;20186;-70
2022/11/10 09:28:12;;;;;;;6.10;1.17;;;19.60;69.30;;;;;;5046458;28;20197;-68
2022/11/10 09:30:40;;;;;;;3.23;1.10;;;19.50;69.20;;;;;;5049898;28;20176;-70
2022/11/10 09:33:08;;;;;;;4.40;1.50;;;19.50;68.60;;;;;;5052140;28;20235;-67
2022/11/10 09:35:35;;;;;;;9.03;1.50;;;19.60;68.90;;;;;;5050684;28;20646;-68
2022/11/10 09:38:04;;;;;;;5.37;1.33;;;19.50;69.00;;;;;;5053334;28;20639;-69
2022/11/10 09:41:04;;;;;;;5.30;1.70;;;19.50;69.40;;;;;;5048878;28;20207;-69
2022/11/10 09:43:38;;;;;;;6.70;1.20;;;19.50;69.10;;;;;;5048387;28;20187;-76
2022/11/10 09:46:17;;;;;;;4.47;1.20;;;19.40;69.10;;;;;;5052635;28;20249;-73
2022/11/10 09:48:52;;;;;;;5.27;1.30;;;19.50;68.60;;;;;;5049871;28;20230;-68
2022/11/10 09:51:26;;;;;;;3.17;1.10;;;19.40;67.50;;;;;;5052489;28;20242;-71
2022/11/10 09:53:59;;;;;;;6.37;1.10;;;19.40;67.60;;;;;;5054593;28;20650;-77
2022/11/10 09:56:35;;;;;;;3.23;1.17;;;19.40;67.90;;;;;;5054261;28;20183;-77
2022/11/10 09:59:20;;;;;;;7.03;1.10;;;19.40;68.30;;;;;;5046521;28;20279;-75
2022/11/10 10:02:05;;;;;;;5.07;1.30;;;19.40;68.60;;;;;;5053122;28;20211;-79
2022/11/10 10:05:09;;;;;;;3.63;1.03;;;19.30;68.70;;;;;;5054379;28;20660;-78
2022/11/10 10:07:51;;;;;;;4.90;1.23;;;19.30;68.40;;;;;;5053993;28;20244;-75
2022/11/10 10:10:45;;;;;;;5.13;1.23;;;19.40;68.60;;;;;;5053843;28;20672;-75
2022/11/10 10:13:50;;;;;;;4.27;1.03;;;19.30;68.60;;;;;;5053757;28;20266;-75
2022/11/10 10:16:53;;;;;;;3.97;1.00;;;19.30;68.60;;;;;;5052375;28;20186;-76
2022/11/10 10:19:31;;;;;;;5.70;1.10;;;19.20;68.60;;;;;;5054240;28;20178;-74
2022/11/10 10:22:05;;;;;;;3.37;0.83;;;19.30;68.20;;;;;;5054366;28;20204;-77
2022/11/10 10:24:33;;;;;;;4.27;0.93;;;19.30;67.70;;;;;;5044274;28;20208;-76
2022/11/10 10:27:05;;;;;;;6.83;1.10;;;19.30;67.90;;;;;;5053998;28;20535;-68
2022/11/10 10:29:50;;;;;;;3.57;0.90;;;19.30;67.90;;;;;;5052515;28;20192;-69
2022/11/10 10:32:20;;;;;;;2.23;0.90;;;19.20;67.50;;;;;;5053591;28;20266;-68
2022/11/10 10:34:47;;;;;;;3.13;1.20;;;19.20;67.40;;;;;;5053661;28;20314;-69
2022/11/10 10:37:43;;;;;;;4.30;1.20;;;19.20;67.70;;;;;;5053667;28;20167;-69
2022/11/10 10:40:19;;;;;;;6.80;1.30;;;19.20;68.10;;;;;;5051614;28;20213;-67
2022/11/10 10:42:47;;;;;;;5.30;1.33;;;19.20;68.40;;;;;;5053245;28;20190;-68
2022/11/10 10:45:19;;;;;;;4.47;1.07;;;19.20;68.60;;;;;;5053552;28;20353;-68
2022/11/10 10:47:49;;;;;;;8.93;1.70;;;19.20;68.70;;;;;;5053658;28;20202;-69
2022/11/10 10:50:36;;;;;;;10.80;4.33;;;19.20;68.80;;;;;;5053238;28;20188;-68
2022/11/10 10:53:16;;;;;;;13.03;2.40;;;19.20;68.80;;;;;;5053627;28;20233;-68
2022/11/10 10:56:11;;;;;;;4.60;1.30;;;19.20;69.20;;;;;;5052883;28;20172;-69
2022/11/10 10:59:04;;;;;;;7.37;1.30;;;19.10;69.30;;;;;;5053436;28;20214;-68
2022/11/10 11:01:37;;;;;;;5.77;1.80;;;19.10;69.80;;;;;;5041724;28;20207;-68
2022/11/10 11:04:24;;;;;;;4.53;1.20;;;19.10;69.70;;;;;;5052037;28;20186;-71
2022/11/10 11:07:00;;;;;;;7.40;1.20;;;19.20;69.70;;;;;;5053228;28;20192;-68
2022/11/10 11:09:40;;;;;;;7.40;1.37;;;19.10;69.70;;;;;;5052402;28;20646;-68
2022/11/10 11:12:12;;;;;;;5.93;1.83;;;19.10;69.90;;;;;;5052956;28;20250;-69
2022/11/10 11:14:39;;;;;;;8.40;1.67;;;19.00;69.80;;;;;;5053394;28;20176;-68
2022/11/10 11:17:18;;;;;;;4.00;1.40;;;19.00;69.60;;;;;;5052699;28;20215;-68
2022/11/10 11:19:46;;;;;;;10.23;1.63;;;19.00;69.70;;;;;;5053418;28;20571;-68
2022/11/10 11:22:30;;;;;;;4.53;1.40;;;19.00;69.80;;;;;;5053048;28;20516;-68
2022/11/10 11:25:15;;;;;;;6.90;1.63;;;19.00;70.00;;;;;;5051641;28;20189;-69
2022/11/10 11:28:02;;;;;;;8.70;1.80;;;19.00;70.50;;;;;;5049653;28;20186;-68
2022/11/10 11:30:57;;;;;;;5.13;1.20;;;18.90;70.90;;;;;;5053036;28;20179;-69
2022/11/10 11:33:57;;;;;;;3.00;0.90;;;18.90;70.80;;;;;;5052606;28;20185;-68
2022/11/10 11:36:33;;;;;;;7.77;1.43;;;18.90;70.90;;;;;;5050208;28;20189;-70
2022/11/10 11:39:26;;;;;;;5.17;1.23;;;18.90;71.10;;;;;;5052617;28;20229;-69
2022/11/10 11:42:29;;;;;;;6.37;1.33;;;18.90;71.00;;;;;;5057311;28;20279;-70
2022/11/10 11:45:06;;;;;;;6.10;1.30;;;18.90;71.40;;;;;;5052199;28;20222;-68
2022/11/10 11:47:49;;;;;;;7.23;1.23;;;18.90;71.70;;;;;;5048336;28;20516;-70
2022/11/10 11:50:52;;;;;;;5.37;1.30;;;18.80;71.90;;;;;;5052815;28;20176;-69
2022/11/10 11:53:39;;;;;;;5.67;1.50;;;18.80;72.30;;;;;;5039249;28;20641;-68
2022/11/10 11:56:19;;;;;;;3.47;1.37;;;18.80;72.40;;;;;;5014626;28;20180;-68
2022/11/10 11:59:12;;;;;;;6.50;1.23;;;18.80;72.20;;;;;;5052241;28;20179;-67
2022/11/10 12:02:08;;;;;;;5.03;1.30;;;18.80;72.20;;;;;;5052312;28;20298;-68
2022/11/10 12:04:52;;;;;;;8.90;1.20;;;18.90;72.20;;;;;;5052736;28;20164;-70
2022/11/10 12:07:53;;;;;;;9.27;1.40;;;18.80;72.20;;;;;;5051648;28;20187;-67
2022/11/10 12:10:40;;;;;;;4.80;1.50;;;18.80;72.40;;;;;;5052208;28;20183;-67
2022/11/10 12:13:22;;;;;;;4.23;1.23;;;18.80;72.60;;;;;;5052069;28;20176;-67
2022/11/10 12:16:07;;;;;;;4.70;1.47;;;18.80;72.20;;;;;;5051143;28;20284;-67
2022/11/10 12:18:47;;;;;;;7.90;1.40;;;18.80;72.20;;;;;;5052452;28;20187;-67
2022/11/10 12:21:33;;;;;;;9.77;1.70;;;18.80;71.90;;;;;;5052004;28;20197;-68
2022/11/10 12:24:06;;;;;;;7.17;1.30;;;18.80;72.10;;;;;;5051807;28;20179;-67
2022/11/10 12:26:54;;;;;;;5.83;1.30;;;18.70;72.10;;;;;;5051216;28;20945;-67
2022/11/10 12:29:39;;;;;;;8.93;1.30;;;18.80;72.20;;;;;;5065371;28;20175;-67
2022/11/10 12:32:21;;;;;;;7.13;1.17;;;18.60;72.60;;;;;;5039651;28;20179;-67
2022/11/10 12:35:05;;;;;;;11.63;1.50;;;18.60;72.50;;;;;;5052263;28;20523;-68
2022/11/10 12:37:43;;;;;;;4.03;1.10;;;18.60;72.70;;;;;;5051938;28;20218;-68
2022/11/10 12:40:26;;;;;;;3.43;0.97;;;18.70;72.90;;;;;;5051945;28;20574;-67
2022/11/10 12:42:59;;;;;;;8.13;1.20;;;18.60;72.90;;;;;;5049772;28;20183;-73
2022/11/10 12:45:57;;;;;;;6.80;1.00;;;18.60;73.00;;;;;;5051832;28;20227;-73
2022/11/10 12:48:31;;;;;;;2.60;1.20;;;18.60;73.30;;;;;;5043533;28;20610;-76
2022/11/10 12:51:10;;;;;;;7.17;1.00;;;18.60;73.20;;;;;;5053339;28;20271;-76
2022/11/10 12:53:40;;;;;;;6.63;1.30;;;18.60;73.40;;;;;;5055995;28;20186;-76
2022/11/10 12:56:26;;;;;;;8.90;1.40;;;18.70;73.00;;;;;;5056110;28;20183;-77
2022/11/10 12:59:20;;;;;;;4.50;1.10;;;18.70;73.10;;;;;;5041701;28;20168;-75
2022/11/10 13:01:51;;;;;;;5.50;1.33;;;18.70;73.30;;;;;;5038079;28;20717;-73
2022/11/10 13:04:19;;;;;;;7.37;1.30;;;18.70;73.00;;;;;;5055952;28;20664;-71
2022/11/10 13:06:54;;;;;;;5.87;1.47;;;18.60;72.90;;;;;;5055685;28;20179;-73
2022/11/10 13:09:33;;;;;;;4.97;1.40;;;18.70;73.30;;;;;;5055757;28;20183;-68
2022/11/10 13:12:15;;;;;;;10.63;1.70;;;18.70;73.40;;;;;;5055811;28;20172;-67
2022/11/10 13:14:44;;;;;;;5.17;1.27;;;18.60;73.20;;;;;;5055819;28;20176;-66
2022/11/10 13:17:37;;;;;;;5.97;1.30;;;18.60;72.90;;;;;;5055376;28;20263;-66
2022/11/10 13:20:24;;;;;;;5.27;1.10;;;18.50;72.50;;;;;;5049009;28;20210;-67
2022/11/10 13:22:51;;;;;;;4.43;1.33;;;18.60;72.10;;;;;;5055398;28;20183;-66
2022/11/10 13:25:37;;;;;;;7.17;1.20;;;18.60;72.10;;;;;;5055334;28;20596;-67
2022/11/10 13:28:08;;;;;;;6.80;1.30;;;18.60;72.20;;;;;;5055131;28;20180;-67
2022/11/10 13:30:43;;;;;;;5.63;1.30;;;18.50;72.40;;;;;;5055524;28;20179;-67